sensor_id;sensor_type;location;lat;lon;timestamp;temperature;humidity
33699;DHT22;20032;52.436;13.312;2022-09-09T00:01:08;15.40;99.90
33699;DHT22;20032;52.436;13.312;2022-09-09T00:03:45;15.30;99.90
33699;DHT22;20032;52.436;13.312;2022-09-09T00:06:23;15.30;99.90
33699;DHT22;20032;52.436;13.312;2022-09-09T00:09:17;15.40;99.90
33699;DHT22;20032;52.436;13.312;2022-09-09T00:11:47;15.40;99.90
33699;DHT22;20032;52.436;13.312;2022-09-09T00:16:51;15.20;99.90
33699;DHT22;20032;52.436;13.312;2022-09-09T00:19:27;15.20;99.90
33699;DHT22;20032;52.436;13.312;2022-09-09T00:22:15;15.10;99.90
33699;DHT22;20032;52.436;13.312;2022-09-09T00:25:19;15.10;99.90
33699;DHT22;20032;52.436;13.312;2022-09-09T00:27:47;15.10;99.90
33699;DHT22;20032;52.436;13.312;2022-09-09T00:32:45;15.10;99.90
33699;DHT22;20032;52.436;13.312;2022-09-09T00:35:22;15.20;99.90
33699;DHT22;20032;52.436;13.312;2022-09-09T00:37:50;15.10;99.90
33699;DHT22;20032;52.436;13.312;2022-09-09T00:40:33;15.10;99.90
33699;DHT22;20032;52.436;13.312;2022-09-09T00:45:46;15.00;99.90
33699;DHT22;20032;52.436;13.312;2022-09-09T00:48:18;15.00;99.90
33699;DHT22;20032;52.436;13.312;2022-09-09T00:50:53;14.90;99.90
33699;DHT22;20032;52.436;13.312;2022-09-09T00:56:41;14.80;99.90
33699;DHT22;20032;52.436;13.312;2022-09-09T00:59:07;14.80;99.90
33699;DHT22;20032;52.436;13.312;2022-09-09T01:01:35;14.70;99.90
33699;DHT22;20032;52.436;13.312;2022-09-09T01:04:06;14.80;99.90
33699;DHT22;20032;52.436;13.312;2022-09-09T01:06:37;14.80;99.90
33699;DHT22;20032;52.436;13.312;2022-09-09T01:09:25;14.90;99.90
33699;DHT22;20032;52.436;13.312;2022-09-09T01:12:17;14.90;99.90
33699;DHT22;20032;52.436;13.312;2022-09-09T01:14:48;14.80;99.90
33699;DHT22;20032;52.436;13.312;2022-09-09T01:20:13;14.70;99.90
33699;DHT22;20032;52.436;13.312;2022-09-09T01:23:18;14.70;99.90
33699;DHT22;20032;52.436;13.312;2022-09-09T01:26:10;14.70;99.90
33699;DHT22;20032;52.436;13.312;2022-09-09T01:28:38;14.60;99.90
33699;DHT22;20032;52.436;13.312;2022-09-09T01:31:06;14.60;99.90
33699;DHT22;20032;52.436;13.312;2022-09-09T01:33:32;14.60;99.90
33699;DHT22;20032;52.436;13.312;2022-09-09T01:36:04;14.50;99.90
33699;DHT22;20032;52.436;13.312;2022-09-09T01:38:33;14.50;99.90
33699;DHT22;20032;52.436;13.312;2022-09-09T01:41:00;14.50;99.90
33699;DHT22;20032;52.436;13.312;2022-09-09T01:43:27;14.70;99.90
33699;DHT22;20032;52.436;13.312;2022-09-09T01:45:55;14.70;99.90
33699;DHT22;20032;52.436;13.312;2022-09-09T01:48:22;14.60;99.90
33699;DHT22;20032;52.436;13.312;2022-09-09T01:50:48;14.50;99.90
33699;DHT22;20032;52.436;13.312;2022-09-09T01:53:15;14.50;99.90
33699;DHT22;20032;52.436;13.312;2022-09-09T01:56:03;14.50;99.90
33699;DHT22;20032;52.436;13.312;2022-09-09T01:58:54;14.60;99.90
33699;DHT22;20032;52.436;13.312;2022-09-09T02:04:18;14.70;99.90
33699;DHT22;20032;52.436;13.312;2022-09-09T02:06:48;14.70;99.90
33699;DHT22;20032;52.436;13.312;2022-09-09T02:09:19;14.70;99.90
33699;DHT22;20032;52.436;13.312;2022-09-09T02:11:49;14.60;99.90
33699;DHT22;20032;52.436;13.312;2022-09-09T02:14:22;14.50;99.90
33699;DHT22;20032;52.436;13.312;2022-09-09T02:16:52;14.60;99.90
33699;DHT22;20032;52.436;13.312;2022-09-09T02:19:25;14.60;99.90
33699;DHT22;20032;52.436;13.312;2022-09-09T02:21:55;14.60;99.90
33699;DHT22;20032;52.436;13.312;2022-09-09T02:24:21;14.50;99.90
33699;DHT22;20032;52.436;13.312;2022-09-09T02:26:51;14.60;99.90
33699;DHT22;20032;52.436;13.312;2022-09-09T02:29:26;14.50;99.90
33699;DHT22;20032;52.436;13.312;2022-09-09T02:31:56;14.60;99.90
33699;DHT22;20032;52.436;13.312;2022-09-09T02:34:23;14.60;99.90
33699;DHT22;20032;52.436;13.312;2022-09-09T02:38:10;14.70;99.90
33699;DHT22;20032;52.436;13.312;2022-09-09T02:40:15;14.70;99.90
33699;DHT22;20032;52.436;13.312;2022-09-09T02:42:43;14.70;99.90
33699;DHT22;20032;52.436;13.312;2022-09-09T02:45:10;14.50;99.90
33699;DHT22;20032;52.436;13.312;2022-09-09T02:47:47;14.50;99.90
33699;DHT22;20032;52.436;13.312;2022-09-09T02:50:23;14.40;99.90
33699;DHT22;20032;52.436;13.312;2022-09-09T02:58:05;14.50;99.90
33699;DHT22;20032;52.436;13.312;2022-09-09T03:00:32;14.60;99.90
33699;DHT22;20032;52.436;13.312;2022-09-09T03:02:58;14.70;99.90
33699;DHT22;20032;52.436;13.312;2022-09-09T03:05:23;14.70;99.90
33699;DHT22;20032;52.436;13.312;2022-09-09T03:07:49;14.60;99.90
33699;DHT22;20032;52.436;13.312;2022-09-09T03:10:16;14.50;99.90
33699;DHT22;20032;52.436;13.312;2022-09-09T03:12:41;14.40;99.90
33699;DHT22;20032;52.436;13.312;2022-09-09T03:15:08;14.40;99.90
33699;DHT22;20032;52.436;13.312;2022-09-09T03:17:33;14.40;99.90
33699;DHT22;20032;52.436;13.312;2022-09-09T03:20:00;14.40;99.90
33699;DHT22;20032;52.436;13.312;2022-09-09T03:22:26;14.40;99.90
33699;DHT22;20032;52.436;13.312;2022-09-09T03:24:52;14.50;99.90
33699;DHT22;20032;52.436;13.312;2022-09-09T03:27:18;14.50;99.90
33699;DHT22;20032;52.436;13.312;2022-09-09T03:29:45;14.50;99.90
33699;DHT22;20032;52.436;13.312;2022-09-09T03:32:10;14.50;99.90
33699;DHT22;20032;52.436;13.312;2022-09-09T03:34:36;14.50;99.90
33699;DHT22;20032;52.436;13.312;2022-09-09T03:37:04;14.50;99.90
33699;DHT22;20032;52.436;13.312;2022-09-09T03:39:30;14.50;99.90
33699;DHT22;20032;52.436;13.312;2022-09-09T03:41:56;14.50;99.90
33699;DHT22;20032;52.436;13.312;2022-09-09T03:44:21;14.50;99.90
33699;DHT22;20032;52.436;13.312;2022-09-09T03:46:47;14.50;99.90
33699;DHT22;20032;52.436;13.312;2022-09-09T03:49:13;14.40;99.90
33699;DHT22;20032;52.436;13.312;2022-09-09T03:51:38;14.40;99.90
33699;DHT22;20032;52.436;13.312;2022-09-09T03:54:04;14.50;99.90
33699;DHT22;20032;52.436;13.312;2022-09-09T03:56:33;14.50;99.90
33699;DHT22;20032;52.436;13.312;2022-09-09T03:58:59;14.40;99.90
33699;DHT22;20032;52.436;13.312;2022-09-09T04:01:24;14.40;99.90
33699;DHT22;20032;52.436;13.312;2022-09-09T04:03:50;14.40;99.90
33699;DHT22;20032;52.436;13.312;2022-09-09T04:06:16;14.40;99.90
33699;DHT22;20032;52.436;13.312;2022-09-09T04:08:42;14.40;99.90
33699;DHT22;20032;52.436;13.312;2022-09-09T04:11:08;14.50;99.90
33699;DHT22;20032;52.436;13.312;2022-09-09T04:13:34;14.40;99.90
33699;DHT22;20032;52.436;13.312;2022-09-09T04:16:01;14.20;99.90
33699;DHT22;20032;52.436;13.312;2022-09-09T04:18:27;14.10;99.90
33699;DHT22;20032;52.436;13.312;2022-09-09T04:20:53;14.10;99.90
33699;DHT22;20032;52.436;13.312;2022-09-09T04:23:20;14.20;99.90
33699;DHT22;20032;52.436;13.312;2022-09-09T04:25:48;14.30;99.90
33699;DHT22;20032;52.436;13.312;2022-09-09T04:28:15;14.30;99.90
33699;DHT22;20032;52.436;13.312;2022-09-09T04:30:42;14.40;99.90
33699;DHT22;20032;52.436;13.312;2022-09-09T04:33:08;14.40;99.90
33699;DHT22;20032;52.436;13.312;2022-09-09T04:35:34;14.30;99.90
33699;DHT22;20032;52.436;13.312;2022-09-09T04:38:00;14.40;99.90
33699;DHT22;20032;52.436;13.312;2022-09-09T04:40:28;14.40;99.90
33699;DHT22;20032;52.436;13.312;2022-09-09T04:42:55;14.40;99.90
33699;DHT22;20032;52.436;13.312;2022-09-09T04:45:20;14.20;99.90
33699;DHT22;20032;52.436;13.312;2022-09-09T04:47:46;14.20;99.90
33699;DHT22;20032;52.436;13.312;2022-09-09T04:50:11;14.20;99.90
33699;DHT22;20032;52.436;13.312;2022-09-09T04:52:37;14.20;99.90
33699;DHT22;20032;52.436;13.312;2022-09-09T04:55:03;14.30;99.90
33699;DHT22;20032;52.436;13.312;2022-09-09T04:57:29;14.30;99.90
33699;DHT22;20032;52.436;13.312;2022-09-09T04:59:57;14.30;99.90
33699;DHT22;20032;52.436;13.312;2022-09-09T05:02:22;14.30;99.90
33699;DHT22;20032;52.436;13.312;2022-09-09T05:04:48;14.20;99.90
33699;DHT22;20032;52.436;13.312;2022-09-09T05:07:15;14.20;99.90
33699;DHT22;20032;52.436;13.312;2022-09-09T05:09:40;14.30;99.90
33699;DHT22;20032;52.436;13.312;2022-09-09T05:12:06;14.20;99.90
33699;DHT22;20032;52.436;13.312;2022-09-09T05:14:31;14.30;99.90
33699;DHT22;20032;52.436;13.312;2022-09-09T05:16:57;14.30;99.90
33699;DHT22;20032;52.436;13.312;2022-09-09T05:19:23;14.20;99.90
33699;DHT22;20032;52.436;13.312;2022-09-09T05:21:48;14.20;99.90
33699;DHT22;20032;52.436;13.312;2022-09-09T05:24:15;14.20;99.90
33699;DHT22;20032;52.436;13.312;2022-09-09T05:26:42;14.20;99.90
33699;DHT22;20032;52.436;13.312;2022-09-09T05:29:08;14.20;99.90
33699;DHT22;20032;52.436;13.312;2022-09-09T05:31:34;14.10;99.90
33699;DHT22;20032;52.436;13.312;2022-09-09T05:33:59;14.20;99.90
33699;DHT22;20032;52.436;13.312;2022-09-09T05:36:25;14.20;99.90
33699;DHT22;20032;52.436;13.312;2022-09-09T05:38:51;14.20;99.90
33699;DHT22;20032;52.436;13.312;2022-09-09T05:41:19;14.30;99.90
33699;DHT22;20032;52.436;13.312;2022-09-09T05:43:46;14.20;99.90
33699;DHT22;20032;52.436;13.312;2022-09-09T05:46:16;14.30;99.90
33699;DHT22;20032;52.436;13.312;2022-09-09T05:48:44;14.40;99.90
33699;DHT22;20032;52.436;13.312;2022-09-09T05:51:13;14.40;99.90
33699;DHT22;20032;52.436;13.312;2022-09-09T05:53:41;14.40;99.90
33699;DHT22;20032;52.436;13.312;2022-09-09T05:56:09;14.50;99.90
33699;DHT22;20032;52.436;13.312;2022-09-09T05:58:36;14.50;99.90
33699;DHT22;20032;52.436;13.312;2022-09-09T06:01:06;14.60;99.90
33699;DHT22;20032;52.436;13.312;2022-09-09T06:03:34;14.70;99.90
33699;DHT22;20032;52.436;13.312;2022-09-09T06:06:01;14.70;99.90
33699;DHT22;20032;52.436;13.312;2022-09-09T06:08:27;14.70;99.90
33699;DHT22;20032;52.436;13.312;2022-09-09T06:10:53;14.80;99.90
33699;DHT22;20032;52.436;13.312;2022-09-09T06:13:27;14.80;99.90
33699;DHT22;20032;52.436;13.312;2022-09-09T06:15:53;14.90;99.90
33699;DHT22;20032;52.436;13.312;2022-09-09T06:18:19;14.90;99.90
33699;DHT22;20032;52.436;13.312;2022-09-09T06:21:02;15.00;99.90
33699;DHT22;20032;52.436;13.312;2022-09-09T06:23:30;15.10;99.90
33699;DHT22;20032;52.436;13.312;2022-09-09T06:26:14;15.10;99.90
33699;DHT22;20032;52.436;13.312;2022-09-09T06:28:40;15.20;99.90
33699;DHT22;20032;52.436;13.312;2022-09-09T06:31:09;15.30;99.90
33699;DHT22;20032;52.436;13.312;2022-09-09T06:33:37;15.20;99.90
33699;DHT22;20032;52.436;13.312;2022-09-09T06:36:07;15.20;99.90
33699;DHT22;20032;52.436;13.312;2022-09-09T06:38:34;15.20;99.90
33699;DHT22;20032;52.436;13.312;2022-09-09T06:41:00;15.10;99.90
33699;DHT22;20032;52.436;13.312;2022-09-09T06:43:26;15.20;99.90
33699;DHT22;20032;52.436;13.312;2022-09-09T06:45:59;15.20;99.90
33699;DHT22;20032;52.436;13.312;2022-09-09T06:48:26;15.30;99.90
33699;DHT22;20032;52.436;13.312;2022-09-09T06:51:00;15.40;99.90
33699;DHT22;20032;52.436;13.312;2022-09-09T06:53:26;15.40;99.90
33699;DHT22;20032;52.436;13.312;2022-09-09T06:55:53;15.50;99.90
33699;DHT22;20032;52.436;13.312;2022-09-09T06:58:18;15.60;99.90
33699;DHT22;20032;52.436;13.312;2022-09-09T07:00:44;15.70;99.90
33699;DHT22;20032;52.436;13.312;2022-09-09T07:03:10;15.80;99.90
33699;DHT22;20032;52.436;13.312;2022-09-09T07:05:36;15.90;99.90
33699;DHT22;20032;52.436;13.312;2022-09-09T07:08:02;16.00;99.90
33699;DHT22;20032;52.436;13.312;2022-09-09T07:10:27;16.00;99.90
33699;DHT22;20032;52.436;13.312;2022-09-09T07:12:53;16.10;99.90
33699;DHT22;20032;52.436;13.312;2022-09-09T07:15:19;16.20;99.90
33699;DHT22;20032;52.436;13.312;2022-09-09T07:17:45;16.20;99.90
33699;DHT22;20032;52.436;13.312;2022-09-09T07:20:11;16.30;99.90
33699;DHT22;20032;52.436;13.312;2022-09-09T07:22:37;16.40;99.90
33699;DHT22;20032;52.436;13.312;2022-09-09T07:25:03;16.50;99.90
33699;DHT22;20032;52.436;13.312;2022-09-09T07:27:29;16.70;99.90
33699;DHT22;20032;52.436;13.312;2022-09-09T07:29:55;16.80;99.90
33699;DHT22;20032;52.436;13.312;2022-09-09T07:32:20;16.90;99.90
33699;DHT22;20032;52.436;13.312;2022-09-09T07:34:46;16.80;99.90
33699;DHT22;20032;52.436;13.312;2022-09-09T07:37:12;16.90;99.90
33699;DHT22;20032;52.436;13.312;2022-09-09T07:39:39;17.10;99.90
33699;DHT22;20032;52.436;13.312;2022-09-09T07:42:04;17.30;99.90
33699;DHT22;20032;52.436;13.312;2022-09-09T07:44:30;17.40;99.90
33699;DHT22;20032;52.436;13.312;2022-09-09T07:47:00;17.60;99.90
33699;DHT22;20032;52.436;13.312;2022-09-09T07:49:26;17.60;99.90
33699;DHT22;20032;52.436;13.312;2022-09-09T07:51:52;17.70;99.90
33699;DHT22;20032;52.436;13.312;2022-09-09T07:54:18;17.80;99.90
33699;DHT22;20032;52.436;13.312;2022-09-09T07:56:46;18.00;99.90
33699;DHT22;20032;52.436;13.312;2022-09-09T07:59:12;18.10;99.90
33699;DHT22;20032;52.436;13.312;2022-09-09T08:01:42;18.20;99.90
33699;DHT22;20032;52.436;13.312;2022-09-09T08:04:14;18.30;99.90
33699;DHT22;20032;52.436;13.312;2022-09-09T08:06:44;18.20;99.90
33699;DHT22;20032;52.436;13.312;2022-09-09T08:09:10;18.20;99.90
33699;DHT22;20032;52.436;13.312;2022-09-09T08:11:37;18.20;99.90
33699;DHT22;20032;52.436;13.312;2022-09-09T08:14:03;18.30;99.90
33699;DHT22;20032;52.436;13.312;2022-09-09T08:16:31;18.30;99.90
33699;DHT22;20032;52.436;13.312;2022-09-09T08:18:57;18.20;99.90
33699;DHT22;20032;52.436;13.312;2022-09-09T08:21:27;18.20;99.90
33699;DHT22;20032;52.436;13.312;2022-09-09T08:23:54;18.10;99.90
33699;DHT22;20032;52.436;13.312;2022-09-09T08:26:22;18.10;99.90
33699;DHT22;20032;52.436;13.312;2022-09-09T08:28:50;18.20;99.90
33699;DHT22;20032;52.436;13.312;2022-09-09T08:31:20;18.30;99.90
33699;DHT22;20032;52.436;13.312;2022-09-09T08:33:47;18.40;99.90
33699;DHT22;20032;52.436;13.312;2022-09-09T08:36:15;18.40;99.90
33699;DHT22;20032;52.436;13.312;2022-09-09T08:38:42;18.40;99.90
33699;DHT22;20032;52.436;13.312;2022-09-09T08:49:50;18.40;99.90
33699;DHT22;20032;52.436;13.312;2022-09-09T08:52:25;18.50;99.90
33699;DHT22;20032;52.436;13.312;2022-09-09T08:54:52;18.50;99.90
33699;DHT22;20032;52.436;13.312;2022-09-09T08:57:23;18.50;99.90
33699;DHT22;20032;52.436;13.312;2022-09-09T08:59:52;18.50;99.90
33699;DHT22;20032;52.436;13.312;2022-09-09T09:02:27;18.50;99.90
33699;DHT22;20032;52.436;13.312;2022-09-09T09:05:08;18.50;99.90
33699;DHT22;20032;52.436;13.312;2022-09-09T09:08:51;18.70;99.90
33699;DHT22;20032;52.436;13.312;2022-09-09T09:10:41;18.70;99.90
33699;DHT22;20032;52.436;13.312;2022-09-09T09:13:14;18.80;99.90
33699;DHT22;20032;52.436;13.312;2022-09-09T09:15:42;18.70;99.90
33699;DHT22;20032;52.436;13.312;2022-09-09T09:18:12;18.90;99.90
33699;DHT22;20032;52.436;13.312;2022-09-09T09:23:26;19.20;99.90
33699;DHT22;20032;52.436;13.312;2022-09-09T09:25:58;19.40;99.90
33699;DHT22;20032;52.436;13.312;2022-09-09T09:28:28;19.70;99.90
33699;DHT22;20032;52.436;13.312;2022-09-09T09:31:11;19.80;99.90
33699;DHT22;20032;52.436;13.312;2022-09-09T09:33:45;20.10;99.90
33699;DHT22;20032;52.436;13.312;2022-09-09T09:36:13;20.20;99.90
33699;DHT22;20032;52.436;13.312;2022-09-09T09:38:55;20.40;99.90
33699;DHT22;20032;52.436;13.312;2022-09-09T09:41:29;20.50;99.90
33699;DHT22;20032;52.436;13.312;2022-09-09T09:43:55;20.70;99.90
33699;DHT22;20032;52.436;13.312;2022-09-09T09:46:23;20.80;99.90
33699;DHT22;20032;52.436;13.312;2022-09-09T09:49:05;21.00;99.90
33699;DHT22;20032;52.436;13.312;2022-09-09T09:51:32;21.10;99.90
33699;DHT22;20032;52.436;13.312;2022-09-09T09:54:14;21.10;99.90
33699;DHT22;20032;52.436;13.312;2022-09-09T09:56:41;21.20;99.90
33699;DHT22;20032;52.436;13.312;2022-09-09T10:01:54;21.20;99.90
33699;DHT22;20032;52.436;13.312;2022-09-09T10:04:22;21.20;99.90
33699;DHT22;20032;52.436;13.312;2022-09-09T10:06:50;21.20;99.90
33699;DHT22;20032;52.436;13.312;2022-09-09T10:09:31;21.10;99.90
33699;DHT22;20032;52.436;13.312;2022-09-09T10:12:21;21.20;99.90
33699;DHT22;20032;52.436;13.312;2022-09-09T10:15:07;21.40;99.90
33699;DHT22;20032;52.436;13.312;2022-09-09T10:18:45;21.70;99.90
33699;DHT22;20032;52.436;13.312;2022-09-09T10:20:51;21.60;99.90
33699;DHT22;20032;52.436;13.312;2022-09-09T10:24:04;21.50;99.90
33699;DHT22;20032;52.436;13.312;2022-09-09T10:26:31;21.50;99.90
33699;DHT22;20032;52.436;13.312;2022-09-09T10:29:43;21.50;99.90
33699;DHT22;20032;52.436;13.312;2022-09-09T10:32:01;21.40;99.90
33699;DHT22;20032;52.436;13.312;2022-09-09T10:34:58;21.50;99.90
33699;DHT22;20032;52.436;13.312;2022-09-09T10:37:41;21.80;99.90
33699;DHT22;20032;52.436;13.312;2022-09-09T10:40:23;21.80;99.90
33699;DHT22;20032;52.436;13.312;2022-09-09T10:42:53;21.70;99.90
33699;DHT22;20032;52.436;13.312;2022-09-09T10:45:29;21.70;99.90
33699;DHT22;20032;52.436;13.312;2022-09-09T10:48:23;21.80;99.90
33699;DHT22;20032;52.436;13.312;2022-09-09T10:51:14;22.00;99.90
33699;DHT22;20032;52.436;13.312;2022-09-09T10:54:06;22.30;99.90
33699;DHT22;20032;52.436;13.312;2022-09-09T10:56:35;22.80;99.90
33699;DHT22;20032;52.436;13.312;2022-09-09T10:59:07;23.30;99.90
33699;DHT22;20032;52.436;13.312;2022-09-09T11:01:47;23.10;99.90
33699;DHT22;20032;52.436;13.312;2022-09-09T11:04:21;23.10;99.90
33699;DHT22;20032;52.436;13.312;2022-09-09T11:06:53;23.20;99.90
33699;DHT22;20032;52.436;13.312;2022-09-09T11:09:22;23.50;99.90
33699;DHT22;20032;52.436;13.312;2022-09-09T11:11:53;23.90;99.90
33699;DHT22;20032;52.436;13.312;2022-09-09T11:17:01;24.20;99.90
33699;DHT22;20032;52.436;13.312;2022-09-09T11:19:34;24.50;99.90
33699;DHT22;20032;52.436;13.312;2022-09-09T11:22:05;24.30;99.90
33699;DHT22;20032;52.436;13.312;2022-09-09T11:24:40;24.60;99.90
33699;DHT22;20032;52.436;13.312;2022-09-09T11:28:07;24.80;99.90
33699;DHT22;20032;52.436;13.312;2022-09-09T11:30:21;24.30;99.90
33699;DHT22;20032;52.436;13.312;2022-09-09T11:34:09;23.90;99.90
33699;DHT22;20032;52.436;13.312;2022-09-09T11:38:51;24.70;99.90
33699;DHT22;20032;52.436;13.312;2022-09-09T11:41:18;24.70;99.90
33699;DHT22;20032;52.436;13.312;2022-09-09T11:43:48;24.90;99.90
33699;DHT22;20032;52.436;13.312;2022-09-09T11:46:19;25.00;99.90
33699;DHT22;20032;52.436;13.312;2022-09-09T11:48:58;25.20;99.90
33699;DHT22;20032;52.436;13.312;2022-09-09T11:51:28;24.90;99.90
33699;DHT22;20032;52.436;13.312;2022-09-09T11:53:56;24.70;99.90
33699;DHT22;20032;52.436;13.312;2022-09-09T11:56:27;24.70;99.90
33699;DHT22;20032;52.436;13.312;2022-09-09T11:59:03;24.90;99.90
33699;DHT22;20032;52.436;13.312;2022-09-09T12:01:37;25.30;99.90
33699;DHT22;20032;52.436;13.312;2022-09-09T12:04:13;25.80;99.90
33699;DHT22;20032;52.436;13.312;2022-09-09T12:06:43;25.90;99.90
33699;DHT22;20032;52.436;13.312;2022-09-09T12:09:22;26.20;99.90
33699;DHT22;20032;52.436;13.312;2022-09-09T12:11:50;26.60;99.90
33699;DHT22;20032;52.436;13.312;2022-09-09T12:17:23;27.30;99.70
33699;DHT22;20032;52.436;13.312;2022-09-09T12:22:47;27.50;98.10
33699;DHT22;20032;52.436;13.312;2022-09-09T12:26:56;27.50;98.00
33699;DHT22;20032;52.436;13.312;2022-09-09T12:31:01;26.60;98.50
33699;DHT22;20032;52.436;13.312;2022-09-09T12:33:35;26.40;98.70
33699;DHT22;20032;52.436;13.312;2022-09-09T12:36:01;25.90;99.60
33699;DHT22;20032;52.436;13.312;2022-09-09T12:38:34;25.60;99.90
33699;DHT22;20032;52.436;13.312;2022-09-09T12:41:00;25.30;99.90
33699;DHT22;20032;52.436;13.312;2022-09-09T12:43:26;25.10;99.90
33699;DHT22;20032;52.436;13.312;2022-09-09T12:45:57;24.80;99.90
33699;DHT22;20032;52.436;13.312;2022-09-09T12:48:36;24.60;99.90
33699;DHT22;20032;52.436;13.312;2022-09-09T12:51:06;24.40;99.90
33699;DHT22;20032;52.436;13.312;2022-09-09T12:53:35;24.20;99.90
33699;DHT22;20032;52.436;13.312;2022-09-09T12:56:07;23.80;99.90
33699;DHT22;20032;52.436;13.312;2022-09-09T12:58:35;23.60;99.90
33699;DHT22;20032;52.436;13.312;2022-09-09T13:01:03;23.60;99.90
33699;DHT22;20032;52.436;13.312;2022-09-09T13:03:31;23.60;99.90
33699;DHT22;20032;52.436;13.312;2022-09-09T13:05:59;23.60;99.90
33699;DHT22;20032;52.436;13.312;2022-09-09T13:08:35;23.70;99.90
33699;DHT22;20032;52.436;13.312;2022-09-09T13:11:02;23.60;99.90
33699;DHT22;20032;52.436;13.312;2022-09-09T13:13:34;23.50;99.90
33699;DHT22;20032;52.436;13.312;2022-09-09T13:16:02;23.50;99.90
33699;DHT22;20032;52.436;13.312;2022-09-09T13:18:32;23.50;99.90
33699;DHT22;20032;52.436;13.312;2022-09-09T13:20:59;23.30;99.90
33699;DHT22;20032;52.436;13.312;2022-09-09T13:23:28;23.30;99.90
33699;DHT22;20032;52.436;13.312;2022-09-09T13:25:57;23.40;99.90
33699;DHT22;20032;52.436;13.312;2022-09-09T13:28:26;23.70;99.90
33699;DHT22;20032;52.436;13.312;2022-09-09T13:31:01;23.90;99.90
33699;DHT22;20032;52.436;13.312;2022-09-09T13:33:33;23.90;99.90
33699;DHT22;20032;52.436;13.312;2022-09-09T13:36:05;24.10;99.90
33699;DHT22;20032;52.436;13.312;2022-09-09T13:38:35;24.30;99.90
33699;DHT22;20032;52.436;13.312;2022-09-09T13:41:04;24.20;99.90
33699;DHT22;20032;52.436;13.312;2022-09-09T13:43:47;24.40;99.90
33699;DHT22;20032;52.436;13.312;2022-09-09T13:46:34;24.60;99.90
33699;DHT22;20032;52.436;13.312;2022-09-09T13:49:16;24.60;99.90
33699;DHT22;20032;52.436;13.312;2022-09-09T13:51:50;24.50;99.90
33699;DHT22;20032;52.436;13.312;2022-09-09T13:54:18;24.10;99.90
33699;DHT22;20032;52.436;13.312;2022-09-09T13:56:44;23.90;99.90
33699;DHT22;20032;52.436;13.312;2022-09-09T13:59:12;24.00;99.90
33699;DHT22;20032;52.436;13.312;2022-09-09T14:01:39;24.20;99.90
33699;DHT22;20032;52.436;13.312;2022-09-09T14:04:05;24.40;99.90
33699;DHT22;20032;52.436;13.312;2022-09-09T14:06:32;24.40;99.90
33699;DHT22;20032;52.436;13.312;2022-09-09T14:08:58;24.40;99.90
33699;DHT22;20032;52.436;13.312;2022-09-09T14:11:24;24.40;99.90
33699;DHT22;20032;52.436;13.312;2022-09-09T14:13:51;24.50;99.90
33699;DHT22;20032;52.436;13.312;2022-09-09T14:16:18;24.50;99.90
33699;DHT22;20032;52.436;13.312;2022-09-09T14:18:45;24.00;99.90
33699;DHT22;20032;52.436;13.312;2022-09-09T14:21:11;24.20;99.90
33699;DHT22;20032;52.436;13.312;2022-09-09T14:23:37;24.50;99.90
33699;DHT22;20032;52.436;13.312;2022-09-09T14:26:04;24.50;99.90
33699;DHT22;20032;52.436;13.312;2022-09-09T14:28:29;24.30;99.90
33699;DHT22;20032;52.436;13.312;2022-09-09T14:31:02;24.10;99.90
33699;DHT22;20032;52.436;13.312;2022-09-09T14:33:27;23.80;99.90
33699;DHT22;20032;52.436;13.312;2022-09-09T14:35:58;23.60;99.90
33699;DHT22;20032;52.436;13.312;2022-09-09T14:38:25;23.30;99.90
33699;DHT22;20032;52.436;13.312;2022-09-09T14:40:51;23.30;99.90
33699;DHT22;20032;52.436;13.312;2022-09-09T14:43:16;23.10;99.90
33699;DHT22;20032;52.436;13.312;2022-09-09T14:45:42;23.00;99.90
33699;DHT22;20032;52.436;13.312;2022-09-09T14:48:08;22.90;99.90
33699;DHT22;20032;52.436;13.312;2022-09-09T14:50:34;22.80;99.90
33699;DHT22;20032;52.436;13.312;2022-09-09T14:53:02;22.80;99.90
33699;DHT22;20032;52.436;13.312;2022-09-09T14:55:27;22.70;99.90
33699;DHT22;20032;52.436;13.312;2022-09-09T14:57:55;22.70;99.90
33699;DHT22;20032;52.436;13.312;2022-09-09T15:00:20;22.70;99.90
33699;DHT22;20032;52.436;13.312;2022-09-09T15:02:46;22.80;99.90
33699;DHT22;20032;52.436;13.312;2022-09-09T15:05:11;22.90;99.90
33699;DHT22;20032;52.436;13.312;2022-09-09T15:07:37;23.00;99.90
33699;DHT22;20032;52.436;13.312;2022-09-09T15:10:03;23.00;99.90
33699;DHT22;20032;52.436;13.312;2022-09-09T15:12:29;23.10;99.90
33699;DHT22;20032;52.436;13.312;2022-09-09T15:14:55;23.00;99.90
33699;DHT22;20032;52.436;13.312;2022-09-09T15:17:21;23.00;99.90
33699;DHT22;20032;52.436;13.312;2022-09-09T15:19:46;23.10;99.90
33699;DHT22;20032;52.436;13.312;2022-09-09T15:22:12;23.10;99.90
33699;DHT22;20032;52.436;13.312;2022-09-09T15:24:37;23.20;99.90
33699;DHT22;20032;52.436;13.312;2022-09-09T15:27:03;23.30;99.90
33699;DHT22;20032;52.436;13.312;2022-09-09T15:29:28;23.40;99.90
33699;DHT22;20032;52.436;13.312;2022-09-09T15:31:54;23.80;99.90
33699;DHT22;20032;52.436;13.312;2022-09-09T15:34:20;24.10;99.90
33699;DHT22;20032;52.436;13.312;2022-09-09T15:36:47;24.40;99.90
33699;DHT22;20032;52.436;13.312;2022-09-09T15:39:14;24.50;99.90
33699;DHT22;20032;52.436;13.312;2022-09-09T15:41:42;24.20;99.90
33699;DHT22;20032;52.436;13.312;2022-09-09T15:44:09;23.90;99.90
33699;DHT22;20032;52.436;13.312;2022-09-09T15:46:41;23.70;99.90
33699;DHT22;20032;52.436;13.312;2022-09-09T15:49:27;23.50;99.90
33699;DHT22;20032;52.436;13.312;2022-09-09T15:51:54;23.40;99.90
33699;DHT22;20032;52.436;13.312;2022-09-09T15:54:22;23.30;99.90
33699;DHT22;20032;52.436;13.312;2022-09-09T15:56:52;23.10;99.90
33699;DHT22;20032;52.436;13.312;2022-09-09T15:59:19;23.10;99.90
33699;DHT22;20032;52.436;13.312;2022-09-09T16:01:45;23.20;99.90
33699;DHT22;20032;52.436;13.312;2022-09-09T16:04:11;23.10;99.90
33699;DHT22;20032;52.436;13.312;2022-09-09T16:06:36;23.10;99.90
33699;DHT22;20032;52.436;13.312;2022-09-09T16:09:04;23.20;99.90
33699;DHT22;20032;52.436;13.312;2022-09-09T16:11:33;23.00;99.90
33699;DHT22;20032;52.436;13.312;2022-09-09T16:14:00;23.00;99.90
33699;DHT22;20032;52.436;13.312;2022-09-09T16:16:28;22.90;99.90
33699;DHT22;20032;52.436;13.312;2022-09-09T16:18:56;22.80;99.90
33699;DHT22;20032;52.436;13.312;2022-09-09T16:21:33;22.80;99.90
33699;DHT22;20032;52.436;13.312;2022-09-09T16:24:00;22.80;99.90
33699;DHT22;20032;52.436;13.312;2022-09-09T16:26:29;22.80;99.90